If you wish to contribute or participate in the discussions about articles you are invited to join SKYbrary as a registered user

 Actions

Angoulême-Brie-Champniers Airport

From SKYbrary Wiki

LFBU
Airport
ICAO: LFBU – IATA: ANG
Summary
Name Angoulême-Brie-Champniers Airport
Region Europe
Territory France FR.gif
Location , Poitou-Charentes
Serving Angouleme
Elevation 132.893 m
436 ft
436 ft132.893 m
Type medium airport
Coordinates 45° 43' 45.29" N, 0° 13' 17.24" E
Runways
Designator Length Width Surface ROPS
10/28 1810 m5,938.32 ft
45 m147.638 ft
ASP /


METAR
Observation LFBU 182200Z AUTO 12007KT CAVOK 17/06 Q1019
Station BRIE CHAMPNIERS
Date/Time 18 April 2019 22:00:00
Wind direction 120°
Wind speed 07 kts
Lowest cloud amount clouds and visibility OK
Temperature 17°C
Dew point 6°C
Humidity 48%
QNH 1019 hPa
Weather condition n/a